sensor_id;sensor_type;location;lat;lon;timestamp;pressure;altitude;pressure_sealevel;temperature;humidity
75594;BME280;64176;49.156;7.810;2023-04-01T00:02:06;97765.22;;;8.80;79.63
75594;BME280;64176;49.156;7.810;2023-04-01T00:04:53;97747.19;;;8.80;79.04
75594;BME280;64176;49.156;7.810;2023-04-01T00:07:38;97749.78;;;8.75;79.43
75594;BME280;64176;49.156;7.810;2023-04-01T00:10:23;97739.50;;;8.75;79.57
75594;BME280;64176;49.156;7.810;2023-04-01T00:13:07;97753.19;;;8.81;79.59
75594;BME280;64176;49.156;7.810;2023-04-01T00:15:57;97757.47;;;8.80;79.49
75594;BME280;64176;49.156;7.810;2023-04-01T00:18:43;97753.13;;;8.84;78.79
75594;BME280;64176;49.156;7.810;2023-04-01T00:21:30;97753.16;;;8.82;79.38
75594;BME280;64176;49.156;7.810;2023-04-01T00:24:16;97760.91;;;8.81;79.48
75594;BME280;64176;49.156;7.810;2023-04-01T00:27:01;97739.44;;;8.82;79.02
75594;BME280;64176;49.156;7.810;2023-04-01T00:29:46;97749.66;;;8.86;78.66
75594;BME280;64176;49.156;7.810;2023-04-01T00:32:31;97741.09;;;8.86;78.80
75594;BME280;64176;49.156;7.810;2023-04-01T00:35:16;97737.63;;;8.87;78.22
75594;BME280;64176;49.156;7.810;2023-04-01T00:38:03;97759.94;;;8.91;78.40
75594;BME280;64176;49.156;7.810;2023-04-01T00:40:57;97740.22;;;8.85;78.13
75594;BME280;64176;49.156;7.810;2023-04-01T00:43:49;97743.66;;;8.87;78.13
75594;BME280;64176;49.156;7.810;2023-04-01T00:46:36;97744.53;;;8.85;78.38
75594;BME280;64176;49.156;7.810;2023-04-01T00:49:26;97749.63;;;8.89;78.15
75594;BME280;64176;49.156;7.810;2023-04-01T00:52:16;97738.47;;;8.89;78.11
75594;BME280;64176;49.156;7.810;2023-04-01T00:55:07;97742.78;;;8.87;77.97
75594;BME280;64176;49.156;7.810;2023-04-01T00:57:58;97743.59;;;8.93;78.09
75594;BME280;64176;49.156;7.810;2023-04-01T01:00:46;97736.75;;;8.91;77.70
75594;BME280;64176;49.156;7.810;2023-04-01T01:03:34;97727.31;;;8.88;78.59
75594;BME280;64176;49.156;7.810;2023-04-01T01:15:37;97729.84;;;8.94;78.01
75594;BME280;64176;49.156;7.810;2023-04-01T01:18:38;97727.16;;;9.00;76.90
75594;BME280;64176;49.156;7.810;2023-04-01T01:28:25;97738.31;;;9.02;77.00
75594;BME280;64176;49.156;7.810;2023-04-01T01:31:25;97721.16;;;9.00;77.22
75594;BME280;64176;49.156;7.810;2023-04-01T01:34:22;97728.16;;;8.92;78.75
75594;BME280;64176;49.156;7.810;2023-04-01T01:37:11;97735.06;;;8.88;79.02
75594;BME280;64176;49.156;7.810;2023-04-01T01:40:06;97717.03;;;8.88;79.14
75594;BME280;64176;49.156;7.810;2023-04-01T01:43:02;97716.19;;;8.86;78.71
75594;BME280;64176;49.156;7.810;2023-04-01T01:45:51;97711.03;;;8.85;79.37
75594;BME280;64176;49.156;7.810;2023-04-01T01:48:38;97708.41;;;8.91;78.47
75594;BME280;64176;49.156;7.810;2023-04-01T01:51:27;97717.91;;;8.86;79.16
75594;BME280;64176;49.156;7.810;2023-04-01T01:54:14;97706.84;;;8.79;80.38
75594;BME280;64176;49.156;7.810;2023-04-01T01:57:06;97724.13;;;8.68;81.19
75594;BME280;64176;49.156;7.810;2023-04-01T01:59:56;97710.50;;;8.60;81.63
75594;BME280;64176;49.156;7.810;2023-04-01T02:02:57;97708.81;;;8.57;82.57
75594;BME280;64176;49.156;7.810;2023-04-01T02:05:42;97710.56;;;8.54;82.80
75594;BME280;64176;49.156;7.810;2023-04-01T02:11:29;97712.38;;;8.47;83.70
75594;BME280;64176;49.156;7.810;2023-04-01T02:14:20;97716.72;;;8.40;84.57
75594;BME280;64176;49.156;7.810;2023-04-01T02:17:09;97720.22;;;8.33;85.07
75594;BME280;64176;49.156;7.810;2023-04-01T02:19:59;97711.63;;;8.37;84.51
75594;BME280;64176;49.156;7.810;2023-04-01T02:23:07;97717.69;;;8.27;85.63
75594;BME280;64176;49.156;7.810;2023-04-01T02:25:53;97699.63;;;8.36;85.15
75594;BME280;64176;49.156;7.810;2023-04-01T02:28:50;97702.28;;;8.24;85.44
75594;BME280;64176;49.156;7.810;2023-04-01T02:31:38;97698.84;;;8.27;86.03
75594;BME280;64176;49.156;7.810;2023-04-01T02:34:24;97689.44;;;8.20;86.21
75594;BME280;64176;49.156;7.810;2023-04-01T02:37:08;97704.84;;;8.27;86.22
75594;BME280;64176;49.156;7.810;2023-04-01T02:39:52;97709.13;;;8.25;85.80
75594;BME280;64176;49.156;7.810;2023-04-01T02:42:36;97701.53;;;8.16;85.98
75594;BME280;64176;49.156;7.810;2023-04-01T02:45:22;97704.00;;;8.22;86.86
75594;BME280;64176;49.156;7.810;2023-04-01T02:48:11;97709.16;;;8.24;85.93
75594;BME280;64176;49.156;7.810;2023-04-01T02:50:57;97707.44;;;8.23;85.80
75594;BME280;64176;49.156;7.810;2023-04-01T02:53:44;97699.84;;;8.11;86.54
75594;BME280;64176;49.156;7.810;2023-04-01T02:56:28;97706.59;;;8.22;86.45
75594;BME280;64176;49.156;7.810;2023-04-01T02:59:14;97700.59;;;8.20;86.05
75594;BME280;64176;49.156;7.810;2023-04-01T03:02:01;97708.28;;;8.25;85.44
75594;BME280;64176;49.156;7.810;2023-04-01T03:04:45;97706.56;;;8.25;85.44
75594;BME280;64176;49.156;7.810;2023-04-01T03:07:29;97703.13;;;8.28;84.19
75594;BME280;64176;49.156;7.810;2023-04-01T03:10:24;97715.94;;;8.34;84.26
75594;BME280;64176;49.156;7.810;2023-04-01T03:13:13;97703.94;;;8.30;84.44
75594;BME280;64176;49.156;7.810;2023-04-01T03:15:57;97699.63;;;8.30;84.74
75594;BME280;64176;49.156;7.810;2023-04-01T03:18:41;97722.03;;;8.22;85.32
75594;BME280;64176;49.156;7.810;2023-04-01T03:21:25;97709.94;;;8.29;84.34
75594;BME280;64176;49.156;7.810;2023-04-01T03:24:12;97721.16;;;8.22;85.65
75594;BME280;64176;49.156;7.810;2023-04-01T03:26:58;97708.31;;;8.22;84.88
75594;BME280;64176;49.156;7.810;2023-04-01T03:29:43;97710.00;;;8.24;84.58
75594;BME280;64176;49.156;7.810;2023-04-01T03:32:30;97704.00;;;8.22;85.14
75594;BME280;64176;49.156;7.810;2023-04-01T03:35:14;97713.44;;;8.25;84.60
75594;BME280;64176;49.156;7.810;2023-04-01T03:37:58;97720.31;;;8.20;84.45
75594;BME280;64176;49.156;7.810;2023-04-01T03:40:45;97712.66;;;8.17;84.68
75594;BME280;64176;49.156;7.810;2023-04-01T03:43:32;97716.88;;;8.21;84.13
75594;BME280;64176;49.156;7.810;2023-04-01T03:46:18;97716.03;;;8.20;84.07
75594;BME280;64176;49.156;7.810;2023-04-01T03:49:05;97708.31;;;8.22;84.01
75594;BME280;64176;49.156;7.810;2023-04-01T03:51:55;97706.69;;;8.15;83.85
75594;BME280;64176;49.156;7.810;2023-04-01T03:54:39;97710.13;;;8.12;84.62
75594;BME280;64176;49.156;7.810;2023-04-01T03:57:26;97706.72;;;8.09;84.43
75594;BME280;64176;49.156;7.810;2023-04-01T04:00:18;97705.81;;;8.14;84.60
75594;BME280;64176;49.156;7.810;2023-04-01T04:03:06;97706.72;;;8.07;84.92
75594;BME280;64176;49.156;7.810;2023-04-01T04:05:55;97706.72;;;8.10;84.75
75594;BME280;64176;49.156;7.810;2023-04-01T04:08:45;97703.22;;;8.16;84.27
75594;BME280;64176;49.156;7.810;2023-04-01T04:11:31;97704.09;;;8.15;84.81
75594;BME280;64176;49.156;7.810;2023-04-01T04:14:16;97690.41;;;8.13;84.49
75594;BME280;64176;49.156;7.810;2023-04-01T04:17:00;97679.22;;;8.14;84.87
75594;BME280;64176;49.156;7.810;2023-04-01T04:19:50;97697.19;;;8.18;84.91
75594;BME280;64176;49.156;7.810;2023-04-01T04:22:37;97698.09;;;8.16;85.76
75594;BME280;64176;49.156;7.810;2023-04-01T04:25:28;97687.81;;;8.13;85.75
75594;BME280;64176;49.156;7.810;2023-04-01T04:28:14;97700.69;;;8.14;86.06
75594;BME280;64176;49.156;7.810;2023-04-01T04:30:59;97694.66;;;8.17;85.47
75594;BME280;64176;49.156;7.810;2023-04-01T04:33:44;97703.22;;;8.16;85.95
75594;BME280;64176;49.156;7.810;2023-04-01T04:36:33;97697.28;;;8.11;86.16
75594;BME280;64176;49.156;7.810;2023-04-01T04:39:17;97693.88;;;8.07;86.28
75594;BME280;64176;49.156;7.810;2023-04-01T04:42:02;97681.91;;;8.04;86.75
75594;BME280;64176;49.156;7.810;2023-04-01T04:44:46;97698.97;;;8.10;86.54
75594;BME280;64176;49.156;7.810;2023-04-01T04:47:31;97695.66;;;8.02;86.83
75594;BME280;64176;49.156;7.810;2023-04-01T04:50:15;97703.38;;;7.97;87.67
75594;BME280;64176;49.156;7.810;2023-04-01T04:53:03;97687.97;;;7.97;88.04
75594;BME280;64176;49.156;7.810;2023-04-01T04:55:52;97685.44;;;7.94;88.42
75594;BME280;64176;49.156;7.810;2023-04-01T04:59:13;97693.13;;;7.96;87.74
75594;BME280;64176;49.156;7.810;2023-04-01T05:02:07;97692.31;;;7.92;88.87
75594;BME280;64176;49.156;7.810;2023-04-01T05:04:56;97702.59;;;7.91;88.59
75594;BME280;64176;49.156;7.810;2023-04-01T05:07:42;97697.44;;;7.94;88.72
75594;BME280;64176;49.156;7.810;2023-04-01T05:10:29;97680.41;;;7.84;88.90
75594;BME280;64176;49.156;7.810;2023-04-01T05:13:14;97700.06;;;7.88;89.38
75594;BME280;64176;49.156;7.810;2023-04-01T05:16:00;97698.41;;;7.82;90.07
75594;BME280;64176;49.156;7.810;2023-04-01T05:18:46;97700.06;;;7.88;89.32
75594;BME280;64176;49.156;7.810;2023-04-01T05:21:30;97699.28;;;7.81;89.84
75594;BME280;64176;49.156;7.810;2023-04-01T05:24:16;97706.91;;;7.90;89.08
75594;BME280;64176;49.156;7.810;2023-04-01T05:27:06;97694.16;;;7.78;89.38
75594;BME280;64176;49.156;7.810;2023-04-01T05:29:57;97695.78;;;7.85;88.15
75594;BME280;64176;49.156;7.810;2023-04-01T05:33:04;97692.34;;;7.86;88.32
75594;BME280;64176;49.156;7.810;2023-04-01T05:35:50;97694.06;;;7.86;89.27
75594;BME280;64176;49.156;7.810;2023-04-01T05:38:34;97697.53;;;7.83;89.53
75594;BME280;64176;49.156;7.810;2023-04-01T05:41:20;97706.06;;;7.88;88.69
75594;BME280;64176;49.156;7.810;2023-04-01T05:44:04;97699.28;;;7.81;89.55
75594;BME280;64176;49.156;7.810;2023-04-01T05:47:13;97702.63;;;7.86;88.45
75594;BME280;64176;49.156;7.810;2023-04-01T05:50:00;97696.72;;;7.78;88.90
75594;BME280;64176;49.156;7.810;2023-04-01T05:52:44;97704.34;;;7.86;89.51
75594;BME280;64176;49.156;7.810;2023-04-01T05:55:31;97706.13;;;7.82;89.34
75594;BME280;64176;49.156;7.810;2023-04-01T05:58:15;97696.69;;;7.81;89.69
75594;BME280;64176;49.156;7.810;2023-04-01T06:01:08;97694.03;;;7.92;87.81
75594;BME280;64176;49.156;7.810;2023-04-01T06:03:53;97696.63;;;7.86;88.63
75594;BME280;64176;49.156;7.810;2023-04-01T06:06:41;97691.53;;;7.83;88.33
75594;BME280;64176;49.156;7.810;2023-04-01T06:09:29;97693.19;;;7.90;87.71
75594;BME280;64176;49.156;7.810;2023-04-01T06:30:40;97697.53;;;7.83;89.88
75594;BME280;64176;49.156;7.810;2023-04-01T06:33:56;97679.47;;;7.88;89.69
75594;BME280;64176;49.156;7.810;2023-04-01T06:53:17;97686.34;;;7.89;89.28
75594;BME280;64176;49.156;7.810;2023-04-01T06:56:26;97694.91;;;7.88;89.47
75594;BME280;64176;49.156;7.810;2023-04-01T06:59:24;97694.03;;;7.90;90.11
75594;BME280;64176;49.156;7.810;2023-04-01T07:04:54;97690.63;;;7.87;90.21
75594;BME280;64176;49.156;7.810;2023-04-01T07:07:52;97684.59;;;7.94;89.54
75594;BME280;64176;49.156;7.810;2023-04-01T07:10:47;97679.44;;;7.94;89.78
75594;BME280;64176;49.156;7.810;2023-04-01T07:14:00;97691.47;;;7.92;90.42
75594;BME280;64176;49.156;7.810;2023-04-01T07:23:07;97682.88;;;7.91;90.08
75594;BME280;64176;49.156;7.810;2023-04-01T07:26:19;97677.72;;;7.94;90.68
75594;BME280;64176;49.156;7.810;2023-04-01T07:29:19;97681.16;;;7.93;90.35
75594;BME280;64176;49.156;7.810;2023-04-01T07:35:24;97689.63;;;8.04;90.07
75594;BME280;64176;49.156;7.810;2023-04-01T07:41:38;97698.13;;;8.10;90.40
75594;BME280;64176;49.156;7.810;2023-04-01T07:44:39;97705.00;;;8.11;90.63
75594;BME280;64176;49.156;7.810;2023-04-01T07:53:50;97708.38;;;8.16;91.35
75594;BME280;64176;49.156;7.810;2023-04-01T07:57:03;97686.19;;;8.06;90.84
75594;BME280;64176;49.156;7.810;2023-04-01T08:21:43;97720.09;;;8.47;90.04
75594;BME280;64176;49.156;7.810;2023-04-01T08:24:34;97723.56;;;8.40;90.69
75594;BME280;64176;49.156;7.810;2023-04-01T08:27:37;97721.91;;;8.39;91.03
75594;BME280;64176;49.156;7.810;2023-04-01T08:31:12;97737.34;;;8.39;91.20
75594;BME280;64176;49.156;7.810;2023-04-01T08:33:33;97727.84;;;8.43;90.80
75594;BME280;64176;49.156;7.810;2023-04-01T08:36:31;97733.81;;;8.46;90.69
75594;BME280;64176;49.156;7.810;2023-04-01T08:39:37;97741.47;;;8.52;90.26
75594;BME280;64176;49.156;7.810;2023-04-01T08:45:45;97735.34;;;8.62;90.66
75594;BME280;64176;49.156;7.810;2023-04-01T08:49:03;97739.59;;;8.69;90.89
75594;BME280;64176;49.156;7.810;2023-04-01T08:58:27;97736.13;;;8.72;91.32
75594;BME280;64176;49.156;7.810;2023-04-01T09:11:39;97740.19;;;8.91;91.92
75594;BME280;64176;49.156;7.810;2023-04-01T09:18:15;97749.53;;;8.98;91.15
75594;BME280;64176;49.156;7.810;2023-04-01T09:27:34;97756.38;;;9.01;91.14
75594;BME280;64176;49.156;7.810;2023-04-01T09:56:08;97781.13;;;9.12;90.86
75594;BME280;64176;49.156;7.810;2023-04-01T10:16:15;97782.63;;;9.29;90.18
75594;BME280;64176;49.156;7.810;2023-04-01T10:19:39;97789.59;;;9.24;90.24
75594;BME280;64176;49.156;7.810;2023-04-01T10:25:37;97790.47;;;9.21;90.91
75594;BME280;64176;49.156;7.810;2023-04-01T10:47:31;97797.31;;;9.25;90.76
75594;BME280;64176;49.156;7.810;2023-04-01T11:10:44;97803.94;;;9.43;89.60
75594;BME280;64176;49.156;7.810;2023-04-01T11:17:24;97804.44;;;9.69;89.49
75594;BME280;64176;49.156;7.810;2023-04-01T11:23:42;97807.19;;;9.56;89.42
75594;BME280;64176;49.156;7.810;2023-04-01T11:33:29;97821.84;;;9.52;89.68
75594;BME280;64176;49.156;7.810;2023-04-01T11:36:34;97800.28;;;9.59;89.21
75594;BME280;64176;49.156;7.810;2023-04-01T11:43:02;97813.88;;;9.72;88.22
75594;BME280;64176;49.156;7.810;2023-04-01T11:56:01;97832.88;;;9.62;88.67
75594;BME280;64176;49.156;7.810;2023-04-01T12:10:59;97843.22;;;9.62;88.90
75594;BME280;64176;49.156;7.810;2023-04-01T12:19:53;97858.06;;;9.44;89.07
75594;BME280;64176;49.156;7.810;2023-04-01T12:23:03;97855.47;;;9.44;88.35
75594;BME280;64176;49.156;7.810;2023-04-01T12:35:18;97860.50;;;9.57;88.99
75594;BME280;64176;49.156;7.810;2023-04-01T12:41:22;97867.63;;;9.38;88.81
75594;BME280;64176;49.156;7.810;2023-04-01T12:47:21;97866.63;;;9.46;88.73
75594;BME280;64176;49.156;7.810;2023-04-01T12:50:38;97865.78;;;9.44;87.96
75594;BME280;64176;49.156;7.810;2023-04-01T12:53:46;97866.66;;;9.45;88.01
75594;BME280;64176;49.156;7.810;2023-04-01T12:56:54;97873.53;;;9.44;87.93
75594;BME280;64176;49.156;7.810;2023-04-01T13:06:45;97883.03;;;9.39;87.36
75594;BME280;64176;49.156;7.810;2023-04-01T13:10:01;97885.59;;;9.41;86.62
75594;BME280;64176;49.156;7.810;2023-04-01T13:15:54;97897.69;;;9.37;88.00
75594;BME280;64176;49.156;7.810;2023-04-01T13:25:03;97894.16;;;9.46;87.07
75594;BME280;64176;49.156;7.810;2023-04-01T13:27:56;97890.75;;;9.41;87.53
75594;BME280;64176;49.156;7.810;2023-04-01T13:42:57;97911.38;;;9.42;88.30
75594;BME280;64176;49.156;7.810;2023-04-01T13:48:54;97914.13;;;9.27;88.62
75594;BME280;64176;49.156;7.810;2023-04-01T13:52:06;97912.38;;;9.29;89.19
75594;BME280;64176;49.156;7.810;2023-04-01T13:55:11;97918.34;;;9.34;89.45
75594;BME280;64176;49.156;7.810;2023-04-01T14:07:55;97921.69;;;9.41;89.44
75594;BME280;64176;49.156;7.810;2023-04-01T14:16:57;97919.78;;;9.60;88.42
75594;BME280;64176;49.156;7.810;2023-04-01T14:22:56;97923.06;;;9.71;88.34
75594;BME280;64176;49.156;7.810;2023-04-01T14:26:15;97925.59;;;9.75;89.16
75594;BME280;64176;49.156;7.810;2023-04-01T14:32:24;97928.41;;;9.56;88.82
75594;BME280;64176;49.156;7.810;2023-04-01T14:35:35;97929.25;;;9.58;89.59
75594;BME280;64176;49.156;7.810;2023-04-01T14:38:52;97926.00;;;9.39;89.51
75594;BME280;64176;49.156;7.810;2023-04-01T14:41:59;97935.44;;;9.43;89.68
75594;BME280;64176;49.156;7.810;2023-04-01T14:48:13;97938.09;;;9.35;88.99
75594;BME280;64176;49.156;7.810;2023-04-01T14:51:34;97946.69;;;9.37;90.12
75594;BME280;64176;49.156;7.810;2023-04-01T14:54:33;97917.66;;;9.17;90.28
75594;BME280;64176;49.156;7.810;2023-04-01T14:57:27;97929.69;;;9.18;91.10
75594;BME280;64176;49.156;7.810;2023-04-01T15:00:19;97937.34;;;9.26;89.46
75594;BME280;64176;49.156;7.810;2023-04-01T15:19:09;97953.56;;;9.38;89.41
75594;BME280;64176;49.156;7.810;2023-04-01T15:29:02;97958.75;;;9.34;89.37
75594;BME280;64176;49.156;7.810;2023-04-01T15:31:54;97968.28;;;9.27;89.57
75594;BME280;64176;49.156;7.810;2023-04-01T15:35:20;97975.16;;;9.25;90.44
75594;BME280;64176;49.156;7.810;2023-04-01T15:38:24;97971.78;;;9.19;90.46
75594;BME280;64176;49.156;7.810;2023-04-01T15:56:24;97977.41;;;9.57;86.77
75594;BME280;64176;49.156;7.810;2023-04-01T15:59:17;97990.28;;;9.60;86.84
75594;BME280;64176;49.156;7.810;2023-04-01T16:05:31;97994.63;;;9.52;85.95
75594;BME280;64176;49.156;7.810;2023-04-01T16:08:49;97996.38;;;9.52;86.33
75594;BME280;64176;49.156;7.810;2023-04-01T16:15:06;98011.97;;;9.39;86.56
75594;BME280;64176;49.156;7.810;2023-04-01T16:18:09;97997.41;;;9.37;86.73
75594;BME280;64176;49.156;7.810;2023-04-01T16:34:22;98001.97;;;9.06;85.97
75594;BME280;64176;49.156;7.810;2023-04-01T16:37:17;98002.88;;;9.02;86.25
75594;BME280;64176;49.156;7.810;2023-04-01T16:40:34;98018.25;;;9.12;86.62
75594;BME280;64176;49.156;7.810;2023-04-01T16:43:43;98011.47;;;9.01;86.88
75594;BME280;64176;49.156;7.810;2023-04-01T16:46:35;98020.13;;;8.94;86.88
75594;BME280;64176;49.156;7.810;2023-04-01T16:49:46;98025.22;;;8.97;87.50
75594;BME280;64176;49.156;7.810;2023-04-01T17:01:49;98033.97;;;8.82;87.44
75594;BME280;64176;49.156;7.810;2023-04-01T17:04:47;98017.72;;;8.72;87.30
75594;BME280;64176;49.156;7.810;2023-04-01T17:10:37;98031.41;;;8.74;87.32
75594;BME280;64176;49.156;7.810;2023-04-01T17:17:05;98047.72;;;8.75;87.79
75594;BME280;64176;49.156;7.810;2023-04-01T17:22:58;98045.19;;;8.70;88.81
75594;BME280;64176;49.156;7.810;2023-04-01T17:29:24;98046.94;;;8.64;88.69
75594;BME280;64176;49.156;7.810;2023-04-01T17:32:39;98036.72;;;8.52;88.54
75594;BME280;64176;49.156;7.810;2023-04-01T17:35:33;98047.88;;;8.54;88.32
75594;BME280;64176;49.156;7.810;2023-04-01T17:41:24;98042.78;;;8.45;89.00
75594;BME280;64176;49.156;7.810;2023-04-01T17:44:36;98041.09;;;8.39;89.50
75594;BME280;64176;49.156;7.810;2023-04-01T17:57:48;98075.47;;;8.21;88.19
75594;BME280;64176;49.156;7.810;2023-04-01T18:12:45;98108.06;;;8.27;88.70
75594;BME280;64176;49.156;7.810;2023-04-01T18:22:08;98104.63;;;8.28;87.33
75594;BME280;64176;49.156;7.810;2023-04-01T18:25:01;98123.50;;;8.33;87.59
75594;BME280;64176;49.156;7.810;2023-04-01T18:27:50;98130.34;;;8.28;87.90
75594;BME280;64176;49.156;7.810;2023-04-01T18:30:39;98132.06;;;8.36;87.46
75594;BME280;64176;49.156;7.810;2023-04-01T18:36:53;98136.34;;;8.34;87.64
75594;BME280;64176;49.156;7.810;2023-04-01T18:39:47;98128.66;;;8.19;87.64
75594;BME280;64176;49.156;7.810;2023-04-01T18:43:02;98144.09;;;8.27;88.16
75594;BME280;64176;49.156;7.810;2023-04-01T18:46:00;98144.09;;;8.27;87.58
75594;BME280;64176;49.156;7.810;2023-04-01T18:51:45;98155.25;;;8.27;88.10
75594;BME280;64176;49.156;7.810;2023-04-01T18:54:33;98152.63;;;8.29;88.32
75594;BME280;64176;49.156;7.810;2023-04-01T18:57:40;98158.63;;;8.31;87.78
75594;BME280;64176;49.156;7.810;2023-04-01T19:00:43;98164.69;;;8.34;88.04
75594;BME280;64176;49.156;7.810;2023-04-01T19:03:45;98164.69;;;8.34;88.12
75594;BME280;64176;49.156;7.810;2023-04-01T19:06:43;98168.94;;;8.31;89.43
75594;BME280;64176;49.156;7.810;2023-04-01T19:09:43;98170.69;;;8.27;90.16
75594;BME280;64176;49.156;7.810;2023-04-01T19:27:53;98180.13;;;8.27;89.17
75594;BME280;64176;49.156;7.810;2023-04-01T19:30:51;98187.84;;;8.31;89.12
75594;BME280;64176;49.156;7.810;2023-04-01T19:34:17;98186.13;;;8.32;88.54
75594;BME280;64176;49.156;7.810;2023-04-01T19:37:31;98191.28;;;8.33;88.27
75594;BME280;64176;49.156;7.810;2023-04-01T19:57:54;98198.13;;;8.31;88.53
75594;BME280;64176;49.156;7.810;2023-04-01T20:00:44;98193.81;;;8.30;88.06
75594;BME280;64176;49.156;7.810;2023-04-01T20:15:54;98211.00;;;8.31;87.50
75594;BME280;64176;49.156;7.810;2023-04-01T20:18:52;98211.84;;;8.29;87.46
75594;BME280;64176;49.156;7.810;2023-04-01T20:24:33;98205.03;;;8.17;87.65
75594;BME280;64176;49.156;7.810;2023-04-01T20:27:26;98225.59;;;8.34;87.79
75594;BME280;64176;49.156;7.810;2023-04-01T20:36:30;98241.91;;;8.31;87.75
75594;BME280;64176;49.156;7.810;2023-04-01T20:39:44;98235.84;;;8.31;87.62
75594;BME280;64176;49.156;7.810;2023-04-01T20:42:39;98244.44;;;8.30;87.77
75594;BME280;64176;49.156;7.810;2023-04-01T20:51:46;98250.47;;;8.24;88.08
75594;BME280;64176;49.156;7.810;2023-04-01T21:03:52;98260.75;;;8.26;87.47
75594;BME280;64176;49.156;7.810;2023-04-01T21:13:15;98263.34;;;8.27;87.76
75594;BME280;64176;49.156;7.810;2023-04-01T21:16:37;98265.06;;;8.24;88.61
75594;BME280;64176;49.156;7.810;2023-04-01T21:20:00;98271.06;;;8.24;88.71
75594;BME280;64176;49.156;7.810;2023-04-01T21:23:01;98275.34;;;8.27;88.59
75594;BME280;64176;49.156;7.810;2023-04-01T21:41:31;98292.53;;;8.16;88.75
75594;BME280;64176;49.156;7.810;2023-04-01T21:54:11;98310.50;;;8.08;89.67
75594;BME280;64176;49.156;7.810;2023-04-01T22:09:12;98324.25;;;8.06;90.31
75594;BME280;64176;49.156;7.810;2023-04-01T22:16:02;98319.97;;;8.01;90.00
75594;BME280;64176;49.156;7.810;2023-04-01T22:21:58;98321.69;;;7.95;90.49
75594;BME280;64176;49.156;7.810;2023-04-01T22:27:55;98328.53;;;7.99;90.73
75594;BME280;64176;49.156;7.810;2023-04-01T22:30:53;98328.53;;;8.00;90.47
75594;BME280;64176;49.156;7.810;2023-04-01T22:34:14;98334.53;;;8.01;90.93
75594;BME280;64176;49.156;7.810;2023-04-01T22:37:28;98328.53;;;8.00;90.77
75594;BME280;64176;49.156;7.810;2023-04-01T22:40:34;98331.09;;;8.02;91.15
75594;BME280;64176;49.156;7.810;2023-04-01T22:43:40;98328.53;;;8.00;91.24
75594;BME280;64176;49.156;7.810;2023-04-01T22:49:46;98333.69;;;7.94;91.19
75594;BME280;64176;49.156;7.810;2023-04-01T22:52:41;98324.22;;;7.86;92.02
75594;BME280;64176;49.156;7.810;2023-04-01T22:55:30;98327.66;;;7.91;91.55
75594;BME280;64176;49.156;7.810;2023-04-01T22:58:33;98327.69;;;8.01;91.20
75594;BME280;64176;49.156;7.810;2023-04-01T23:01:29;98333.69;;;8.02;91.07
75594;BME280;64176;49.156;7.810;2023-04-01T23:04:16;98351.69;;;7.97;91.98
75594;BME280;64176;49.156;7.810;2023-04-01T23:07:30;98336.22;;;7.79;92.46
75594;BME280;64176;49.156;7.810;2023-04-01T23:10:34;98352.53;;;7.87;92.90
75594;BME280;64176;49.156;7.810;2023-04-01T23:13:29;98347.38;;;7.87;93.10
75594;BME280;64176;49.156;7.810;2023-04-01T23:16:28;98340.50;;;7.86;93.01
75594;BME280;64176;49.156;7.810;2023-04-01T23:19:24;98343.09;;;7.82;93.08
75594;BME280;64176;49.156;7.810;2023-04-01T23:22:28;98350.81;;;7.89;93.42
75594;BME280;64176;49.156;7.810;2023-04-01T23:28:22;98356.81;;;7.96;93.31
75594;BME280;64176;49.156;7.810;2023-04-01T23:37:01;98364.53;;;7.84;93.59
75594;BME280;64176;49.156;7.810;2023-04-01T23:39:49;98355.09;;;7.78;93.90
75594;BME280;64176;49.156;7.810;2023-04-01T23:42:41;98371.41;;;7.83;93.69
75594;BME280;64176;49.156;7.810;2023-04-01T23:45:27;98369.63;;;7.75;94.21
75594;BME280;64176;49.156;7.810;2023-04-01T23:48:17;98361.06;;;7.77;94.08
75594;BME280;64176;49.156;7.810;2023-04-01T23:51:26;98376.53;;;7.79;94.05
75594;BME280;64176;49.156;7.810;2023-04-01T23:54:18;98374.81;;;7.90;93.91
75594;BME280;64176;49.156;7.810;2023-04-01T23:57:14;98379.97;;;7.91;93.62
